Time;durP1;ratioP1;P1;durP2;ratioP2;P2;SDS_P1;SDS_P2;PMS_P1;PMS_P2;Temp;Humidity;BMP_temperature;BMP_pressure;BME280_temperature;BME280_humidity;BME280_pressure;Samples;Min_cycle;Max_cycle;Signal;HPM_P1;HPM_P2
2022/12/19 00:02:05;;;;;;;42.38;19.10;;;3.20;99.90;;;;;;5097025;28;20048;-64
2022/12/19 00:04:32;;;;;;;40.90;20.38;;;3.30;99.90;;;;;;5097912;28;20040;-66
2022/12/19 00:06:58;;;;;;;42.97;20.50;;;3.40;99.90;;;;;;5098082;28;20472;-65
2022/12/19 00:09:25;;;;;;;38.75;18.90;;;3.50;99.90;;;;;;5080455;28;20097;-66
2022/12/19 00:11:51;;;;;;;46.55;20.98;;;3.60;99.90;;;;;;5097819;28;20027;-67
2022/12/19 00:14:17;;;;;;;42.70;19.75;;;3.60;99.90;;;;;;5097029;28;20036;-65
2022/12/19 00:16:43;;;;;;;39.75;19.00;;;3.70;99.90;;;;;;5097673;28;20039;-66
2022/12/19 00:19:10;;;;;;;40.28;19.88;;;3.70;99.90;;;;;;5097594;28;20028;-65
2022/12/19 00:21:36;;;;;;;38.55;18.40;;;3.80;99.90;;;;;;5097540;28;20027;-65
2022/12/19 00:24:04;;;;;;;28.35;15.82;;;3.90;99.90;;;;;;5096928;28;20059;-67
2022/12/19 00:26:32;;;;;;;30.42;16.83;;;3.90;99.90;;;;;;5097594;28;20024;-66
2022/12/19 00:29:01;;;;;;;35.10;17.13;;;4.00;99.90;;;;;;5096618;28;20105;-66
2022/12/19 00:31:29;;;;;;;30.52;15.98;;;4.00;99.90;;;;;;5079797;28;20032;-66
2022/12/19 00:33:56;;;;;;;29.58;15.50;;;4.10;99.90;;;;;;5096614;28;20340;-65
2022/12/19 00:36:24;;;;;;;29.75;15.30;;;4.10;99.90;;;;;;5096739;28;20035;-67
2022/12/19 00:38:52;;;;;;;28.48;14.80;;;4.10;99.90;;;;;;5097408;28;20024;-65
2022/12/19 00:41:20;;;;;;;34.22;16.45;;;4.10;99.90;;;;;;5079701;28;20101;-65
2022/12/19 00:43:50;;;;;;;30.73;15.32;;;4.10;99.90;;;;;;5096600;28;20028;-66
2022/12/19 00:46:16;;;;;;;28.98;15.20;;;4.20;99.90;;;;;;5097415;28;20032;-65
2022/12/19 00:48:42;;;;;;;29.65;14.63;;;4.20;99.90;;;;;;5096502;28;20031;-64
2022/12/19 00:51:11;;;;;;;26.63;14.48;;;4.20;99.90;;;;;;5096419;28;20028;-64
2022/12/19 00:53:40;;;;;;;30.02;15.55;;;4.20;99.90;;;;;;5096516;28;20020;-65
2022/12/19 00:56:10;;;;;;;29.20;14.57;;;4.20;99.90;;;;;;5097095;28;20028;-64
2022/12/19 00:58:36;;;;;;;26.65;14.55;;;4.30;99.90;;;;;;5096347;28;20038;-64
2022/12/19 01:01:12;;;;;;;28.27;14.30;;;4.30;99.90;;;;;;5096370;28;20028;-64
2022/12/19 01:03:37;;;;;;;28.25;14.75;;;4.40;99.90;;;;;;5096479;28;20032;-64
2022/12/19 01:06:04;;;;;;;30.65;15.73;;;4.40;99.90;;;;;;5097160;28;20303;-64
2022/12/19 01:08:30;;;;;;;29.25;16.00;;;4.50;99.90;;;;;;5096928;28;20052;-65
2022/12/19 01:10:56;;;;;;;29.95;15.55;;;4.50;99.90;;;;;;5097001;28;20042;-64
2022/12/19 01:13:23;;;;;;;33.88;16.35;;;4.50;99.90;;;;;;5096187;28;20038;-64
2022/12/19 01:15:49;;;;;;;30.13;15.02;;;4.60;99.90;;;;;;5096206;28;20039;-64
2022/12/19 01:18:15;;;;;;;27.60;14.82;;;4.60;99.90;;;;;;5096183;28;20084;-66
2022/12/19 01:20:44;;;;;;;33.72;16.33;;;4.80;99.90;;;;;;5096212;28;20028;-66
2022/12/19 01:23:10;;;;;;;30.13;15.70;;;4.80;99.90;;;;;;5096832;28;20062;-65
2022/12/19 01:25:37;;;;;;;30.92;15.27;;;4.80;99.90;;;;;;5079535;28;20316;-66
2022/12/19 01:28:05;;;;;;;27.92;15.23;;;4.90;99.90;;;;;;5096474;28;20039;-64
2022/12/19 01:30:31;;;;;;;30.30;15.45;;;4.90;99.90;;;;;;5096066;28;20020;-65
2022/12/19 01:32:59;;;;;;;32.83;16.38;;;4.90;99.90;;;;;;5096819;28;20311;-64
2022/12/19 01:35:26;;;;;;;29.75;14.95;;;5.00;99.90;;;;;;5096800;28;20391;-65
2022/12/19 01:37:53;;;;;;;27.65;15.27;;;5.00;99.90;;;;;;5079288;28;20303;-65
2022/12/19 01:40:20;;;;;;;28.55;15.27;;;5.00;99.90;;;;;;5096783;28;20292;-65
2022/12/19 01:42:46;;;;;;;30.15;15.40;;;5.10;99.90;;;;;;5095868;28;20036;-66
2022/12/19 01:45:15;;;;;;;26.67;14.65;;;5.10;99.90;;;;;;5079482;28;20032;-63
2022/12/19 01:47:50;;;;;;;26.05;14.05;;;5.20;99.90;;;;;;5096687;28;20016;-63
2022/12/19 01:50:26;;;;;;;26.52;14.80;;;5.20;99.90;;;;;;5079071;28;20043;-64
2022/12/19 01:52:53;;;;;;;22.85;13.50;;;5.20;99.90;;;;;;5096592;28;20173;-63
2022/12/19 01:55:19;;;;;;;26.13;13.90;;;5.20;99.90;;;;;;5096329;28;20035;-64
2022/12/19 01:57:46;;;;;;;27.23;13.63;;;5.30;99.90;;;;;;5096573;28;20072;-65
2022/12/19 02:00:12;;;;;;;26.67;13.85;;;5.30;99.90;;;;;;5079182;28;20032;-66
2022/12/19 02:02:52;;;;;;;24.98;13.57;;;5.30;99.90;;;;;;5096099;28;20044;-63
2022/12/19 02:05:18;;;;;;;25.50;12.80;;;5.40;99.90;;;;;;5096566;28;20032;-63
2022/12/19 02:07:45;;;;;;;23.00;14.02;;;5.40;99.90;;;;;;5096542;28;20381;-63
2022/12/19 02:10:11;;;;;;;23.17;12.20;;;5.40;99.90;;;;;;5081260;28;20295;-64
2022/12/19 02:12:42;;;;;;;24.77;13.63;;;5.40;99.90;;;;;;5099942;28;20036;-63
2022/12/19 02:15:10;;;;;;;27.08;13.75;;;5.40;99.90;;;;;;5099210;28;20280;-64
2022/12/19 02:17:56;;;;;;;25.23;13.90;;;5.50;99.90;;;;;;5099206;28;20059;-63
2022/12/19 02:20:41;;;;;;;20.65;12.65;;;5.50;99.90;;;;;;5099842;28;20110;-65
2022/12/19 02:23:25;;;;;;;22.10;13.00;;;5.60;99.90;;;;;;5099036;28;20036;-62
2022/12/19 02:26:08;;;;;;;23.02;12.18;;;5.60;99.90;;;;;;5099853;28;20023;-63
2022/12/19 02:28:43;;;;;;;22.23;12.63;;;5.70;99.90;;;;;;5099961;28;20032;-64
2022/12/19 02:31:23;;;;;;;21.48;12.45;;;5.70;99.90;;;;;;5098886;28;20031;-65
2022/12/19 02:34:15;;;;;;;21.77;12.70;;;5.80;99.90;;;;;;5098841;28;20028;-64
2022/12/19 02:37:02;;;;;;;20.95;12.52;;;5.80;99.90;;;;;;5093481;28;20052;-63
2022/12/19 02:39:45;;;;;;;20.00;12.13;;;5.90;99.90;;;;;;5098838;28;20024;-62
2022/12/19 02:42:17;;;;;;;19.42;12.05;;;5.90;99.90;;;;;;5099774;28;20102;-62
2022/12/19 02:44:48;;;;;;;20.80;12.73;;;6.00;99.90;;;;;;5098824;28;20024;-63
2022/12/19 02:47:17;;;;;;;13.68;8.75;;;6.10;99.90;;;;;;5098781;28;20024;-63
2022/12/19 02:49:43;;;;;;;19.38;12.30;;;6.10;99.90;;;;;;5098667;28;20039;-64
2022/12/19 02:52:12;;;;;;;18.63;11.75;;;6.20;99.90;;;;;;5099313;28;20036;-60
2022/12/19 02:54:38;;;;;;;18.08;12.00;;;6.20;99.90;;;;;;5098486;28;20419;-61
2022/12/19 02:57:41;;;;;;;19.60;11.77;;;6.30;99.90;;;;;;5098414;28;20032;-64
2022/12/19 03:00:16;;;;;;;18.92;11.95;;;6.40;99.90;;;;;;5065682;28;20137;-60
2022/12/19 03:03:01;;;;;;;18.08;11.10;;;6.40;99.90;;;;;;5098298;28;20032;-60
2022/12/19 03:05:42;;;;;;;17.23;10.77;;;6.40;99.90;;;;;;5098314;28;20062;-61
2022/12/19 03:08:18;;;;;;;18.13;11.55;;;6.40;99.90;;;;;;5098055;28;20422;-62
2022/12/19 03:11:00;;;;;;;17.10;11.43;;;6.40;99.90;;;;;;5099374;28;20185;-61
2022/12/19 03:13:38;;;;;;;19.10;11.00;;;6.50;99.90;;;;;;5098226;28;20120;-61
2022/12/19 03:16:08;;;;;;;17.95;11.07;;;6.50;99.90;;;;;;5098117;28;20028;-61
2022/12/19 03:18:34;;;;;;;15.20;9.80;;;6.50;99.90;;;;;;5098908;28;20055;-61
2022/12/19 03:21:15;;;;;;;17.17;11.35;;;6.60;99.90;;;;;;5097672;28;20369;-62
2022/12/19 03:23:41;;;;;;;17.23;11.02;;;6.60;99.90;;;;;;5098785;28;20055;-61
2022/12/19 03:26:19;;;;;;;16.30;11.43;;;6.50;99.90;;;;;;5098074;28;20399;-62
2022/12/19 03:29:36;;;;;;;17.67;11.45;;;6.60;99.90;;;;;;5098070;28;20410;-60
2022/12/19 03:32:05;;;;;;;18.70;12.35;;;6.60;99.90;;;;;;5017256;28;20089;-61
2022/12/19 03:34:43;;;;;;;16.42;10.73;;;6.60;99.90;;;;;;5092508;28;20039;-62
2022/12/19 03:37:16;;;;;;;18.85;11.73;;;6.60;99.90;;;;;;5098433;28;20066;-61
2022/12/19 03:39:45;;;;;;;18.50;11.60;;;6.60;99.90;;;;;;5098544;28;20024;-62
2022/12/19 03:45:01;;;;;;;18.35;11.25;;;6.60;99.90;;;;;;5098363;28;20093;-62
2022/12/19 03:47:36;;;;;;;21.52;11.73;;;6.60;99.90;;;;;;5098223;28;20028;-61
2022/12/19 03:50:04;;;;;;;16.42;11.35;;;6.60;99.90;;;;;;5097489;28;20028;-61
2022/12/19 03:52:47;;;;;;;17.92;11.60;;;6.70;99.90;;;;;;5098134;28;20066;-61
2022/12/19 03:55:23;;;;;;;17.20;11.60;;;6.70;99.90;;;;;;5098642;28;20071;-60
2022/12/19 03:57:55;;;;;;;17.20;11.20;;;6.70;99.90;;;;;;5098118;28;20056;-61
2022/12/19 04:00:24;;;;;;;17.85;11.75;;;6.70;99.90;;;;;;5098044;28;20028;-61
2022/12/19 04:02:53;;;;;;;19.80;12.30;;;6.80;99.90;;;;;;5098212;28;20338;-61
2022/12/19 04:05:22;;;;;;;18.67;11.93;;;6.80;99.90;;;;;;5097922;28;20027;-60
2022/12/19 04:07:50;;;;;;;17.60;11.65;;;6.80;99.90;;;;;;5097669;28;20048;-61
2022/12/19 04:10:20;;;;;;;16.75;11.57;;;6.90;99.90;;;;;;5097865;28;20024;-62
2022/12/19 04:13:12;;;;;;;17.70;11.50;;;6.90;99.90;;;;;;5098003;28;20128;-61
2022/12/19 04:16:01;;;;;;;15.85;10.85;;;6.90;99.90;;;;;;5097564;28;20028;-63
2022/12/19 04:18:27;;;;;;;15.65;10.75;;;6.90;99.90;;;;;;5083681;28;20089;-59
2022/12/19 04:21:06;;;;;;;16.30;11.10;;;7.00;99.90;;;;;;5097608;28;20317;-61
2022/12/19 04:23:40;;;;;;;17.58;10.43;;;7.10;99.90;;;;;;5079937;28;20032;-60
2022/12/19 04:26:07;;;;;;;19.23;10.15;;;7.10;99.90;;;;;;5096957;28;20024;-61
2022/12/19 04:28:56;;;;;;;17.70;10.00;;;7.10;99.90;;;;;;5097579;28;20111;-60
2022/12/19 04:31:22;;;;;;;13.13;9.73;;;7.10;99.90;;;;;;5097813;28;20028;-63
2022/12/19 04:33:48;;;;;;;14.35;9.90;;;7.10;99.90;;;;;;5097170;28;20035;-62
2022/12/19 04:36:14;;;;;;;17.25;9.80;;;7.20;99.90;;;;;;5096580;28;20048;-59
2022/12/19 04:38:40;;;;;;;13.25;8.90;;;7.10;99.90;;;;;;5097345;28;20028;-62
2022/12/19 04:41:06;;;;;;;13.48;9.52;;;7.20;99.90;;;;;;5097332;28;20039;-62
2022/12/19 04:43:32;;;;;;;13.82;9.27;;;7.20;99.90;;;;;;5097206;28;20390;-62
2022/12/19 04:45:58;;;;;;;12.77;9.00;;;7.20;99.90;;;;;;5096594;28;20042;-63
2022/12/19 04:48:24;;;;;;;13.20;8.93;;;7.20;99.90;;;;;;5097251;28;20350;-63
2022/12/19 04:50:50;;;;;;;14.00;9.05;;;7.30;99.90;;;;;;5097190;28;20036;-61
2022/12/19 04:53:16;;;;;;;11.77;8.70;;;7.30;99.90;;;;;;5097211;28;20038;-60
2022/12/19 04:55:43;;;;;;;14.40;8.85;;;7.30;99.90;;;;;;5096529;28;20046;-62
2022/12/19 04:58:08;;;;;;;13.05;8.45;;;7.30;99.90;;;;;;5096448;28;20070;-62
2022/12/19 05:00:34;;;;;;;21.17;14.93;;;7.30;99.90;;;;;;5097271;28;20055;-62
2022/12/19 05:03:00;;;;;;;13.05;8.77;;;7.30;99.90;;;;;;5096761;28;20092;-61
2022/12/19 05:05:26;;;;;;;14.10;8.85;;;7.30;99.90;;;;;;5097099;28;20031;-63
2022/12/19 05:07:52;;;;;;;13.70;9.00;;;7.40;99.90;;;;;;5096098;28;20113;-63
2022/12/19 05:10:17;;;;;;;11.93;8.35;;;7.40;99.90;;;;;;5097027;28;20119;-63
2022/12/19 05:12:43;;;;;;;14.52;8.55;;;7.40;99.90;;;;;;5096374;28;20096;-64
2022/12/19 05:15:10;;;;;;;13.43;8.77;;;7.40;99.90;;;;;;5097003;28;20028;-64
2022/12/19 05:17:36;;;;;;;13.38;9.02;;;7.40;99.90;;;;;;5096945;28;20115;-63
2022/12/19 05:20:03;;;;;;;11.93;8.38;;;7.40;99.90;;;;;;5097018;28;20115;-62
2022/12/19 05:22:29;;;;;;;14.88;8.75;;;7.40;99.90;;;;;;5096821;28;20039;-62
2022/12/19 05:24:54;;;;;;;11.60;8.65;;;7.40;99.90;;;;;;5097529;28;20020;-62
2022/12/19 05:27:20;;;;;;;10.38;7.78;;;7.40;99.90;;;;;;5096093;28;20039;-64
2022/12/19 05:29:46;;;;;;;12.85;8.70;;;7.40;99.90;;;;;;5096929;28;20399;-64
2022/12/19 05:32:12;;;;;;;11.82;8.82;;;7.40;99.90;;;;;;5096087;28;20081;-62
2022/12/19 05:34:38;;;;;;;12.27;8.27;;;7.40;99.90;;;;;;5096129;28;20131;-65
2022/12/19 05:37:03;;;;;;;13.40;8.43;;;7.50;99.90;;;;;;5096847;28;20299;-66
2022/12/19 05:39:29;;;;;;;11.98;8.05;;;7.40;99.90;;;;;;5096102;28;20121;-64
2022/12/19 05:41:55;;;;;;;10.75;8.30;;;7.50;99.90;;;;;;5095934;28;20366;-64
2022/12/19 05:44:21;;;;;;;12.35;8.15;;;7.50;99.90;;;;;;5096535;28;20399;-64
2022/12/19 05:46:47;;;;;;;14.70;8.15;;;7.50;99.90;;;;;;5099987;28;20399;-65
2022/12/19 05:49:13;;;;;;;14.50;7.72;;;7.60;99.90;;;;;;5099966;28;20045;-65
2022/12/19 05:51:38;;;;;;;13.50;7.97;;;7.60;99.90;;;;;;5099803;28;20032;-62
2022/12/19 05:54:04;;;;;;;11.85;8.10;;;7.60;99.90;;;;;;5100435;28;20032;-60
2022/12/19 05:56:30;;;;;;;10.55;8.20;;;7.60;99.90;;;;;;5099712;28;20395;-63
2022/12/19 05:58:56;;;;;;;11.38;7.97;;;7.70;99.90;;;;;;5099506;28;20042;-62
2022/12/19 06:01:26;;;;;;;10.93;7.50;;;7.70;99.90;;;;;;5100055;28;20123;-65
2022/12/19 06:03:53;;;;;;;12.57;8.18;;;7.70;99.90;;;;;;5082703;28;20127;-66
2022/12/19 06:06:23;;;;;;;10.85;6.82;;;7.80;99.90;;;;;;5100066;28;20078;-67
2022/12/19 06:08:54;;;;;;;11.48;7.97;;;7.80;99.90;;;;;;5100301;28;20038;-69
2022/12/19 06:11:20;;;;;;;10.32;7.25;;;7.80;99.90;;;;;;5082380;28;20055;-69
2022/12/19 06:13:46;;;;;;;12.38;7.95;;;7.80;99.90;;;;;;5099416;28;20016;-66
2022/12/19 06:16:18;;;;;;;10.88;7.38;;;7.80;99.90;;;;;;5099260;28;20039;-72
2022/12/19 06:18:44;;;;;;;;;;;7.80;99.90;;;;;;5100719;28;20055;-71
2022/12/19 06:21:16;;;;;;;12.15;7.25;;;7.80;99.90;;;;;;5100063;28;19904;-68
2022/12/19 06:23:42;;;;;;;9.15;7.70;;;7.80;99.90;;;;;;5100142;28;20028;-68
2022/12/19 06:26:11;;;;;;;9.82;7.18;;;7.80;99.90;;;;;;5100388;28;20032;-64
2022/12/19 06:28:36;;;;;;;12.00;6.97;;;7.80;99.90;;;;;;5099857;28;20101;-71
2022/12/19 06:31:04;;;;;;;9.60;6.95;;;7.80;99.90;;;;;;5099903;28;20062;-68
2022/12/19 06:33:31;;;;;;;11.43;7.10;;;7.80;99.90;;;;;;5099943;28;20028;-70
2022/12/19 06:36:14;;;;;;;9.70;6.95;;;7.80;99.90;;;;;;5098901;28;20039;-64
2022/12/19 06:38:40;;;;;;;;;;;7.80;99.90;;;;;;5099209;28;20032;-64
2022/12/19 06:43:51;;;;;;;10.57;6.65;;;8.00;99.90;;;;;;5099054;28;20059;-63
2022/12/19 06:46:17;;;;;;;9.40;6.57;;;8.00;99.90;;;;;;5099715;28;20128;-65
2022/12/19 06:48:42;;;;;;;8.05;6.57;;;8.00;99.90;;;;;;5099414;28;20066;-63
2022/12/19 06:51:08;;;;;;;13.00;7.47;;;8.00;99.90;;;;;;5099418;28;20080;-63
2022/12/19 06:53:34;;;;;;;8.77;6.35;;;8.00;99.90;;;;;;5098770;28;20032;-69
2022/12/19 06:56:00;;;;;;;9.20;6.30;;;8.00;99.90;;;;;;5098458;28;20036;-65
2022/12/19 06:58:26;;;;;;;9.77;6.75;;;8.00;99.90;;;;;;5098457;28;20036;-66
2022/12/19 07:00:52;;;;;;;11.98;6.25;;;8.00;99.90;;;;;;5099263;28;20024;-67
2022/12/19 07:03:23;;;;;;;12.52;6.60;;;8.10;99.90;;;;;;5099162;28;20291;-70
2022/12/19 07:05:49;;;;;;;12.73;6.88;;;8.10;99.90;;;;;;5099426;28;20291;-64
2022/12/19 07:08:15;;;;;;;9.35;5.97;;;8.10;99.90;;;;;;5098948;28;20135;-64
2022/12/19 07:10:40;;;;;;;7.28;5.75;;;8.20;99.90;;;;;;5098467;28;20107;-66
2022/12/19 07:13:06;;;;;;;6.78;5.93;;;8.20;99.90;;;;;;5099068;28;20101;-71
2022/12/19 07:15:33;;;;;;;8.00;5.28;;;8.20;99.90;;;;;;5098273;28;20040;-68
2022/12/19 07:18:02;;;;;;;6.80;5.53;;;8.20;99.90;;;;;;5098285;28;20390;-71
2022/12/19 07:20:29;;;;;;;7.18;5.47;;;8.20;99.90;;;;;;5099614;28;20040;-68
2022/12/19 07:22:55;;;;;;;7.15;5.68;;;8.30;99.90;;;;;;5098621;28;20137;-66
2022/12/19 07:25:21;;;;;;;7.88;5.65;;;8.30;99.90;;;;;;5099104;28;20054;-68
2022/12/19 07:27:47;;;;;;;7.38;5.22;;;8.30;99.90;;;;;;5097965;28;20292;-64
2022/12/19 07:30:13;;;;;;;8.32;5.88;;;8.40;99.90;;;;;;5065044;28;20098;-67
2022/12/19 07:32:39;;;;;;;10.70;6.05;;;8.30;99.90;;;;;;5098886;28;20407;-66
2022/12/19 07:35:06;;;;;;;8.75;5.40;;;8.40;99.90;;;;;;5098590;28;20418;-64
2022/12/19 07:37:31;;;;;;;6.47;5.07;;;8.50;99.90;;;;;;5098563;28;20399;-65
2022/12/19 07:39:57;;;;;;;7.88;5.38;;;8.50;99.90;;;;;;5098433;28;20020;-65
2022/12/19 07:42:23;;;;;;;9.88;5.05;;;8.50;99.90;;;;;;5098354;28;20032;-70
2022/12/19 07:44:49;;;;;;;7.82;5.15;;;8.60;99.90;;;;;;5098547;28;20035;-70
2022/12/19 07:47:15;;;;;;;9.38;4.88;;;8.60;99.90;;;;;;5098585;28;20141;-67
2022/12/19 07:49:40;;;;;;;6.82;4.57;;;8.60;99.90;;;;;;5097660;28;20052;-71
2022/12/19 07:52:07;;;;;;;7.22;5.15;;;8.70;99.90;;;;;;5064127;28;20127;-70
2022/12/19 07:54:33;;;;;;;7.57;4.93;;;8.60;99.90;;;;;;5097633;28;20040;-65
2022/12/19 07:57:00;;;;;;;5.55;4.60;;;8.60;99.90;;;;;;5080778;28;20036;-70
2022/12/19 07:59:26;;;;;;;7.35;4.78;;;8.70;99.90;;;;;;5097474;28;20036;-66
2022/12/19 08:01:52;;;;;;;5.82;4.72;;;8.80;99.90;;;;;;5080521;28;20127;-72
2022/12/19 08:04:18;;;;;;;8.68;4.72;;;8.80;99.90;;;;;;5080754;28;20299;-68
2022/12/19 08:06:45;;;;;;;16.15;5.07;;;8.80;99.90;;;;;;5097688;28;20055;-67
2022/12/19 08:09:14;;;;;;;14.73;5.38;;;8.80;99.90;;;;;;5097819;28;20414;-68
2022/12/19 08:11:40;;;;;;;5.70;4.25;;;8.80;99.90;;;;;;5080280;28;20032;-70
2022/12/19 08:14:06;;;;;;;6.07;4.32;;;8.80;99.90;;;;;;5097181;28;20407;-68
2022/12/19 08:16:32;;;;;;;5.45;4.07;;;8.80;99.90;;;;;;5097953;28;20340;-71
2022/12/19 08:18:57;;;;;;;7.82;4.15;;;8.90;99.90;;;;;;5080187;28;20055;-64
2022/12/19 08:21:24;;;;;;;6.90;4.68;;;8.90;99.90;;;;;;5097226;28;20056;-68
2022/12/19 08:23:49;;;;;;;7.35;4.05;;;8.90;99.90;;;;;;5097105;28;20028;-70
2022/12/19 08:26:26;;;;;;;5.40;4.35;;;8.90;99.90;;;;;;5079986;28;20096;-64
2022/12/19 08:28:56;;;;;;;5.18;4.07;;;8.90;99.90;;;;;;5079764;28;20043;-65
2022/12/19 08:31:24;;;;;;;4.32;3.88;;;8.90;99.90;;;;;;5097666;28;20110;-69
2022/12/19 08:33:52;;;;;;;5.60;3.80;;;9.00;99.90;;;;;;5097586;28;20020;-69
2022/12/19 08:36:18;;;;;;;5.18;4.38;;;9.00;99.90;;;;;;5097607;28;20040;-69
2022/12/19 08:38:45;;;;;;;6.00;4.00;;;9.00;99.90;;;;;;5080225;28;20430;-66
2022/12/19 08:41:11;;;;;;;7.25;3.92;;;9.00;99.90;;;;;;5079991;28;20028;-66
2022/12/19 08:43:37;;;;;;;5.18;3.72;;;9.10;99.90;;;;;;5096837;28;20054;-66
2022/12/19 08:46:04;;;;;;;6.05;3.78;;;9.10;99.90;;;;;;5097466;28;20111;-67
2022/12/19 08:48:31;;;;;;;7.85;4.10;;;9.10;99.90;;;;;;5097466;28;20280;-69
2022/12/19 08:51:00;;;;;;;8.82;4.38;;;9.20;99.90;;;;;;5096644;28;20388;-69
2022/12/19 08:53:28;;;;;;;4.88;3.85;;;9.20;99.90;;;;;;5097585;28;20123;-69
2022/12/19 08:55:55;;;;;;;4.65;3.92;;;9.20;99.90;;;;;;5079828;28;20036;-69
2022/12/19 08:58:25;;;;;;;6.18;3.97;;;9.20;99.90;;;;;;5096861;28;20020;-68
2022/12/19 09:00:52;;;;;;;7.35;3.95;;;9.30;99.90;;;;;;5096683;28;20036;-66
2022/12/19 09:03:19;;;;;;;4.53;3.42;;;9.20;99.90;;;;;;5080150;28;20047;-65
2022/12/19 09:05:45;;;;;;;5.15;3.65;;;9.30;99.90;;;;;;5097784;28;20040;-65
2022/12/19 09:08:11;;;;;;;6.13;3.65;;;9.40;99.90;;;;;;5097003;28;20351;-65
2022/12/19 09:10:37;;;;;;;4.95;3.55;;;9.40;99.90;;;;;;5097195;28;20082;-67
2022/12/19 09:13:04;;;;;;;4.40;3.40;;;9.40;99.90;;;;;;5097410;28;20107;-69
2022/12/19 09:15:31;;;;;;;4.93;3.28;;;9.50;99.90;;;;;;5097308;28;20036;-67
2022/12/19 09:17:56;;;;;;;4.15;2.88;;;9.50;99.90;;;;;;5096580;28;20039;-66
2022/12/19 09:20:22;;;;;;;5.63;3.33;;;9.50;99.90;;;;;;5082151;28;20085;-71
2022/12/19 09:22:48;;;;;;;4.90;3.25;;;9.50;99.90;;;;;;5101282;28;20399;-67
2022/12/19 09:25:14;;;;;;;5.40;3.38;;;9.50;99.90;;;;;;5101114;28;20020;-67
2022/12/19 09:27:40;;;;;;;4.20;3.05;;;9.50;99.90;;;;;;5100408;28;20028;-64
2022/12/19 09:30:07;;;;;;;5.20;3.17;;;9.50;99.90;;;;;;5100537;28;20398;-68
2022/12/19 09:32:33;;;;;;;4.22;3.53;;;9.50;99.90;;;;;;5100462;28;20031;-69
2022/12/19 09:34:58;;;;;;;7.18;3.75;;;9.50;99.90;;;;;;5100167;28;20032;-67
2022/12/19 09:37:25;;;;;;;3.97;3.03;;;9.50;99.90;;;;;;5101287;28;20096;-69
2022/12/19 09:39:50;;;;;;;4.30;3.10;;;9.50;99.90;;;;;;5083181;28;20046;-69
2022/12/19 09:42:40;;;;;;;3.85;3.40;;;9.60;99.90;;;;;;5099992;28;20420;-66
2022/12/19 09:45:26;;;;;;;4.70;3.22;;;9.60;99.90;;;;;;5082921;28;20032;-67
2022/12/19 09:47:56;;;;;;;4.00;3.35;;;9.60;99.90;;;;;;5082951;28;20032;-66
2022/12/19 09:50:55;;;;;;;5.45;3.40;;;9.50;99.90;;;;;;5099984;28;20351;-71
2022/12/19 09:53:31;;;;;;;3.33;3.03;;;9.50;99.90;;;;;;5099738;28;20118;-66
2022/12/19 09:55:58;;;;;;;4.50;3.55;;;9.50;99.90;;;;;;5100507;28;20028;-64
2022/12/19 09:58:38;;;;;;;4.60;3.33;;;9.40;99.90;;;;;;5099782;28;20036;-64
2022/12/19 10:01:15;;;;;;;4.50;3.92;;;9.30;99.90;;;;;;5100991;28;20064;-67
2022/12/19 10:03:45;;;;;;;5.32;3.58;;;9.20;99.90;;;;;;5099621;28;20039;-66
2022/12/19 10:06:22;;;;;;;6.22;3.90;;;9.10;99.90;;;;;;5099411;28;20024;-68
2022/12/19 10:08:49;;;;;;;6.65;4.38;;;9.00;99.90;;;;;;5099753;28;20038;-68
2022/12/19 10:11:15;;;;;;;5.93;4.68;;;8.90;99.90;;;;;;5099660;28;20390;-68
2022/12/19 10:13:52;;;;;;;5.78;4.63;;;8.90;99.90;;;;;;5100243;28;20124;-69
2022/12/19 10:16:44;;;;;;;5.60;4.72;;;8.80;99.90;;;;;;5100149;28;20035;-70
2022/12/19 10:19:33;;;;;;;6.50;4.80;;;8.80;99.90;;;;;;5099623;28;20047;-67
2022/12/19 10:22:24;;;;;;;6.20;4.43;;;8.80;99.90;;;;;;5100428;28;20323;-67
2022/12/19 10:25:11;;;;;;;6.45;4.47;;;8.80;99.90;;;;;;5071532;28;20093;-65
2022/12/19 10:27:52;;;;;;;6.18;4.55;;;8.80;99.90;;;;;;5099296;28;20403;-68
2022/12/19 10:30:22;;;;;;;7.50;4.90;;;8.80;99.90;;;;;;5099222;28;20387;-68
2022/12/19 10:33:18;;;;;;;5.97;4.40;;;8.80;99.90;;;;;;5099142;28;20391;-67
2022/12/19 10:35:45;;;;;;;11.07;3.95;;;8.90;99.90;;;;;;5099100;28;20035;-67
2022/12/19 10:38:10;;;;;;;6.32;3.92;;;8.90;99.90;;;;;;5099656;28;20043;-67
2022/12/19 10:40:47;;;;;;;5.03;4.03;;;8.90;99.90;;;;;;5099813;28;20036;-68
2022/12/19 10:43:16;;;;;;;5.22;4.05;;;9.00;99.90;;;;;;5098801;28;20398;-66
2022/12/19 10:45:51;;;;;;;4.32;3.67;;;9.10;99.90;;;;;;5099570;28;20035;-67
2022/12/19 10:48:19;;;;;;;5.15;3.90;;;9.10;99.90;;;;;;5099559;28;20028;-66
2022/12/19 10:50:46;;;;;;;5.00;3.78;;;9.10;99.90;;;;;;5098676;28;20081;-67
2022/12/19 10:53:13;;;;;;;5.30;3.83;;;9.20;99.90;;;;;;5099486;28;20047;-65
2022/12/19 10:55:52;;;;;;;6.22;3.80;;;9.20;99.90;;;;;;5099951;28;20020;-67
2022/12/19 10:58:25;;;;;;;5.55;3.63;;;9.30;99.90;;;;;;5099449;28;20280;-69
2022/12/19 11:01:12;;;;;;;6.57;3.85;;;9.30;99.90;;;;;;5099421;28;20399;-64
2022/12/19 11:03:44;;;;;;;5.15;3.60;;;9.40;99.90;;;;;;5099113;28;20399;-64
2022/12/19 11:06:38;;;;;;;6.33;3.50;;;9.50;99.90;;;;;;5098419;28;20016;-65
2022/12/19 11:09:21;;;;;;;5.38;3.53;;;9.50;99.90;;;;;;5099691;28;20285;-64
2022/12/19 11:11:54;;;;;;;5.60;3.55;;;9.60;99.90;;;;;;5099121;28;20039;-68
2022/12/19 11:14:27;;;;;;;6.25;3.60;;;9.60;99.90;;;;;;5098710;28;20115;-68
2022/12/19 11:16:52;;;;;;;4.13;3.40;;;9.70;99.90;;;;;;5081306;28;20370;-64
2022/12/19 11:19:33;;;;;;;4.25;3.33;;;9.80;99.90;;;;;;5098924;28;20051;-67
2022/12/19 11:22:06;;;;;;;5.35;3.00;;;9.90;99.90;;;;;;5099134;28;20032;-65
2022/12/19 11:24:53;;;;;;;4.18;3.15;;;10.00;99.90;;;;;;5099244;28;20031;-67
2022/12/19 11:27:40;;;;;;;3.75;2.70;;;10.10;99.90;;;;;;5098071;28;20032;-70
2022/12/19 11:30:18;;;;;;;4.85;2.65;;;10.20;99.90;;;;;;5098757;28;20031;-66
2022/12/19 11:32:46;;;;;;;4.85;2.60;;;10.20;99.90;;;;;;5098700;28;20032;-67
2022/12/19 11:35:25;;;;;;;3.35;2.58;;;10.30;99.90;;;;;;5098584;28;20085;-67
2022/12/19 11:38:05;;;;;;;2.85;2.55;;;10.30;99.90;;;;;;5098565;28;20346;-68
2022/12/19 11:40:55;;;;;;;3.88;2.40;;;10.30;99.90;;;;;;5098532;28;20028;-65
2022/12/19 11:43:36;;;;;;;4.90;2.97;;;10.40;99.90;;;;;;5096819;28;20380;-68
2022/12/19 11:46:06;;;;;;;5.05;2.40;;;10.30;99.90;;;;;;5098510;28;20355;-64
2022/12/19 11:48:40;;;;;;;5.88;2.60;;;10.40;99.90;;;;;;5099066;28;20024;-70
2022/12/19 11:51:25;;;;;;;7.00;2.45;;;10.40;99.90;;;;;;5098775;28;20032;-65
2022/12/19 11:54:19;;;;;;;4.60;2.38;;;10.40;99.90;;;;;;5098555;28;20038;-66
2022/12/19 11:56:44;;;;;;;2.97;2.13;;;10.40;99.90;;;;;;5099155;28;20024;-70
2022/12/19 11:59:26;;;;;;;3.40;2.10;;;10.40;99.90;;;;;;5097537;28;20020;-69
2022/12/19 12:02:29;;;;;;;4.30;2.60;;;10.40;99.90;;;;;;5098031;28;20063;-69
2022/12/19 12:05:35;;;;;;;3.40;2.15;;;10.50;99.90;;;;;;5097429;28;20024;-70
2022/12/19 12:08:39;;;;;;;3.60;2.45;;;10.50;99.90;;;;;;5097399;28;20123;-71
2022/12/19 12:11:17;;;;;;;3.67;2.60;;;10.50;99.90;;;;;;5097935;28;20032;-65
2022/12/19 12:13:46;;;;;;;3.08;2.28;;;10.60;99.90;;;;;;5098013;28;20024;-72
2022/12/19 12:16:15;;;;;;;2.88;2.47;;;10.60;99.90;;;;;;5097086;28;20023;-64
2022/12/19 12:19:21;;;;;;;3.85;2.03;;;10.60;99.90;;;;;;5097760;28;20032;-67
2022/12/19 12:22:15;;;;;;;3.70;2.22;;;10.60;99.90;;;;;;5036294;28;20045;-70
2022/12/19 12:24:58;;;;;;;2.42;2.00;;;10.60;99.90;;;;;;5097851;28;20031;-65
2022/12/19 12:27:47;;;;;;;3.05;2.10;;;10.70;99.90;;;;;;5097758;28;20016;-65
2022/12/19 12:30:19;;;;;;;3.95;2.22;;;10.70;99.90;;;;;;5043136;28;20093;-62
2022/12/19 12:33:11;;;;;;;3.27;2.27;;;10.70;99.90;;;;;;5096882;28;20035;-68
2022/12/19 12:35:44;;;;;;;4.40;2.78;;;10.80;99.90;;;;;;5097635;28;20028;-62
2022/12/19 12:38:38;;;;;;;4.47;2.53;;;10.80;99.90;;;;;;5097554;28;20031;-68
2022/12/19 12:41:16;;;;;;;5.38;2.33;;;10.80;99.90;;;;;;5096734;28;20028;-63
2022/12/19 12:43:50;;;;;;;2.78;2.30;;;10.80;99.90;;;;;;5097337;28;20028;-65
2022/12/19 12:46:22;;;;;;;4.60;2.30;;;10.80;99.90;;;;;;5097359;28;20108;-62
2022/12/19 12:48:58;;;;;;;5.78;2.30;;;10.80;99.90;;;;;;5096609;28;20107;-68
2022/12/19 12:51:25;;;;;;;5.07;2.30;;;10.80;99.90;;;;;;5097394;28;20031;-63
2022/12/19 12:54:13;;;;;;;3.40;2.22;;;10.90;99.90;;;;;;5097224;28;20059;-69
2022/12/19 12:56:40;;;;;;;3.13;2.03;;;10.90;99.90;;;;;;5097240;28;20038;-62
2022/12/19 12:59:19;;;;;;;3.95;2.30;;;10.90;99.90;;;;;;5096446;28;20028;-66
2022/12/19 13:01:53;;;;;;;2.75;2.05;;;10.80;99.90;;;;;;5097819;28;20287;-65
2022/12/19 13:04:31;;;;;;;2.97;2.38;;;10.80;99.90;;;;;;5097183;28;20288;-68
2022/12/19 13:07:18;;;;;;;3.50;2.35;;;10.80;99.90;;;;;;5097333;28;20338;-69
2022/12/19 13:09:51;;;;;;;2.85;2.25;;;10.80;99.90;;;;;;5097524;28;20048;-68
2022/12/19 13:15:30;;;;;;;2.90;2.22;;;10.80;99.90;;;;;;5096779;28;20032;-65
2022/12/19 13:17:56;;;;;;;4.82;2.72;;;10.80;99.90;;;;;;5097091;28;20415;-66
2022/12/19 13:20:28;;;;;;;4.65;2.80;;;10.80;99.90;;;;;;5096340;28;20462;-67